sensor_id;sensor_type;location;lat;lon;timestamp;P1;durP1;ratioP1;P2;durP2;ratioP2
37151;SDS011;23046;50.112;8.952;2023-08-30T21:43:37;0.85;;;0.60;;
37151;SDS011;23046;50.112;8.952;2023-08-30T21:43:47;6.97;;;3.58;;
37151;SDS011;23046;50.112;8.952;2023-08-30T21:43:58;14.00;;;8.20;;
37151;SDS011;23046;50.112;8.952;2023-08-30T21:44:09;60.85;;;42.60;;
37151;SDS011;23046;50.112;8.952;2023-08-30T21:44:20;63.10;;;45.65;;
37151;SDS011;23046;50.112;8.952;2023-08-30T21:44:30;50.03;;;36.97;;
37151;SDS011;23046;50.112;8.952;2023-08-30T21:44:40;9.10;;;6.90;;
37151;SDS011;23046;50.112;8.952;2023-08-30T21:44:52;3.75;;;2.90;;
37151;SDS011;23046;50.112;8.952;2023-08-30T21:45:02;2.10;;;1.90;;
37151;SDS011;23046;50.112;8.952;2023-08-30T21:45:13;1.42;;;1.33;;
37151;SDS011;23046;50.112;8.952;2023-08-30T21:45:23;1.40;;;1.30;;
37151;SDS011;23046;50.112;8.952;2023-08-30T21:45:34;1.30;;;1.20;;
37151;SDS011;23046;50.112;8.952;2023-08-30T21:45:44;1.40;;;1.30;;
37151;SDS011;23046;50.112;8.952;2023-08-30T21:45:55;1.30;;;1.20;;
37151;SDS011;23046;50.112;8.952;2023-08-30T21:46:05;1.20;;;1.10;;
37151;SDS011;23046;50.112;8.952;2023-08-30T21:46:15;1.30;;;1.10;;
37151;SDS011;23046;50.112;8.952;2023-08-30T21:46:25;1.90;;;1.27;;
37151;SDS011;23046;50.112;8.952;2023-08-30T21:46:35;2.60;;;1.30;;
37151;SDS011;23046;50.112;8.952;2023-08-30T21:46:45;2.75;;;1.30;;
37151;SDS011;23046;50.112;8.952;2023-08-30T21:46:56;2.73;;;1.10;;
37151;SDS011;23046;50.112;8.952;2023-08-30T21:47:06;2.30;;;1.23;;
37151;SDS011;23046;50.112;8.952;2023-08-30T21:47:17;2.08;;;1.30;;
37151;SDS011;23046;50.112;8.952;2023-08-30T21:47:27;1.60;;;1.27;;
37151;SDS011;23046;50.112;8.952;2023-08-30T21:47:37;1.27;;;1.10;;
37151;SDS011;23046;50.112;8.952;2023-08-30T21:47:48;1.30;;;1.20;;
37151;SDS011;23046;50.112;8.952;2023-08-30T21:47:58;2.13;;;1.47;;
37151;SDS011;23046;50.112;8.952;2023-08-30T21:48:08;3.50;;;1.50;;
37151;SDS011;23046;50.112;8.952;2023-08-30T21:48:18;4.43;;;1.50;;
37151;SDS011;23046;50.112;8.952;2023-08-30T21:48:29;3.65;;;1.20;;
37151;SDS011;23046;50.112;8.952;2023-08-30T21:48:39;2.33;;;1.10;;
37151;SDS011;23046;50.112;8.952;2023-08-30T21:48:49;2.10;;;1.10;;
37151;SDS011;23046;50.112;8.952;2023-08-30T21:49:03;3.22;;;1.23;;
37151;SDS011;23046;50.112;8.952;2023-08-30T21:49:13;4.13;;;1.15;;
37151;SDS011;23046;50.112;8.952;2023-08-30T21:49:24;3.30;;;1.20;;
37151;SDS011;23046;50.112;8.952;2023-08-30T21:49:34;2.50;;;1.13;;
37151;SDS011;23046;50.112;8.952;2023-08-30T21:49:47;1.47;;;1.20;;
37151;SDS011;23046;50.112;8.952;2023-08-30T21:49:58;1.30;;;1.20;;
37151;SDS011;23046;50.112;8.952;2023-08-30T21:50:08;1.43;;;1.17;;
37151;SDS011;23046;50.112;8.952;2023-08-30T21:50:19;1.33;;;1.20;;
37151;SDS011;23046;50.112;8.952;2023-08-30T21:50:29;1.63;;;1.20;;
37151;SDS011;23046;50.112;8.952;2023-08-30T21:50:39;1.27;;;1.17;;
37151;SDS011;23046;50.112;8.952;2023-08-30T21:50:49;1.20;;;1.10;;
37151;SDS011;23046;50.112;8.952;2023-08-30T21:51:00;1.20;;;1.10;;
37151;SDS011;23046;50.112;8.952;2023-08-30T21:51:10;1.20;;;1.10;;
37151;SDS011;23046;50.112;8.952;2023-08-30T21:51:21;1.20;;;1.10;;
37151;SDS011;23046;50.112;8.952;2023-08-30T21:51:31;1.20;;;1.10;;
37151;SDS011;23046;50.112;8.952;2023-08-30T21:51:44;1.25;;;1.13;;
37151;SDS011;23046;50.112;8.952;2023-08-30T21:51:55;1.25;;;1.10;;
37151;SDS011;23046;50.112;8.952;2023-08-30T21:52:05;1.27;;;1.17;;
37151;SDS011;23046;50.112;8.952;2023-08-30T21:52:15;1.03;;;1.00;;
37151;SDS011;23046;50.112;8.952;2023-08-30T21:52:27;1.73;;;1.00;;
37151;SDS011;23046;50.112;8.952;2023-08-30T21:52:38;1.75;;;1.05;;
37151;SDS011;23046;50.112;8.952;2023-08-30T21:52:48;1.70;;;1.10;;
37151;SDS011;23046;50.112;8.952;2023-08-30T21:52:58;1.10;;;1.00;;
37151;SDS011;23046;50.112;8.952;2023-08-30T21:53:09;1.27;;;1.07;;
37151;SDS011;23046;50.112;8.952;2023-08-30T21:53:19;1.67;;;1.23;;
37151;SDS011;23046;50.112;8.952;2023-08-30T21:53:29;1.53;;;1.20;;
37151;SDS011;23046;50.112;8.952;2023-08-30T21:53:39;1.27;;;1.13;;
37151;SDS011;23046;50.112;8.952;2023-08-30T21:53:49;1.27;;;1.00;;
37151;SDS011;23046;50.112;8.952;2023-08-30T21:54:03;1.30;;;0.90;;
37151;SDS011;23046;50.112;8.952;2023-08-30T21:54:13;1.73;;;1.10;;
37151;SDS011;23046;50.112;8.952;2023-08-30T21:54:24;1.40;;;1.20;;
37151;SDS011;23046;50.112;8.952;2023-08-30T21:54:34;1.30;;;1.20;;
37151;SDS011;23046;50.112;8.952;2023-08-30T21:54:44;1.07;;;1.03;;
37151;SDS011;23046;50.112;8.952;2023-08-30T21:54:54;1.87;;;1.00;;
37151;SDS011;23046;50.112;8.952;2023-08-30T21:55:05;1.90;;;1.00;;
37151;SDS011;23046;50.112;8.952;2023-08-30T21:55:17;2.33;;;1.00;;
37151;SDS011;23046;50.112;8.952;2023-08-30T21:55:29;1.80;;;1.00;;
37151;SDS011;23046;50.112;8.952;2023-08-30T21:55:39;2.60;;;1.10;;
37151;SDS011;23046;50.112;8.952;2023-08-30T21:55:50;2.30;;;1.20;;
37151;SDS011;23046;50.112;8.952;2023-08-30T21:56:03;1.90;;;1.20;;
37151;SDS011;23046;50.112;8.952;2023-08-30T21:56:14;1.52;;;1.00;;
37151;SDS011;23046;50.112;8.952;2023-08-30T21:56:24;1.48;;;1.00;;
37151;SDS011;23046;50.112;8.952;2023-08-30T21:56:37;1.75;;;1.00;;
37151;SDS011;23046;50.112;8.952;2023-08-30T21:56:47;1.60;;;1.10;;
37151;SDS011;23046;50.112;8.952;2023-08-30T21:56:57;2.85;;;1.10;;
37151;SDS011;23046;50.112;8.952;2023-08-30T21:57:07;3.00;;;1.10;;
37151;SDS011;23046;50.112;8.952;2023-08-30T21:57:17;3.30;;;1.20;;
37151;SDS011;23046;50.112;8.952;2023-08-30T21:57:28;1.63;;;1.20;;
37151;SDS011;23046;50.112;8.952;2023-08-30T21:57:38;1.73;;;1.20;;
37151;SDS011;23046;50.112;8.952;2023-08-30T21:57:49;1.20;;;1.10;;
37151;SDS011;23046;50.112;8.952;2023-08-30T21:57:59;1.23;;;1.13;;
37151;SDS011;23046;50.112;8.952;2023-08-30T21:58:10;1.20;;;1.10;;
37151;SDS011;23046;50.112;8.952;2023-08-30T21:58:20;1.10;;;1.00;;
37151;SDS011;23046;50.112;8.952;2023-08-30T21:58:31;1.03;;;1.00;;
37151;SDS011;23046;50.112;8.952;2023-08-30T21:58:41;1.25;;;1.05;;
37151;SDS011;23046;50.112;8.952;2023-08-30T21:58:51;1.20;;;1.00;;
37151;SDS011;23046;50.112;8.952;2023-08-30T21:59:03;1.38;;;1.00;;
37151;SDS011;23046;50.112;8.952;2023-08-30T21:59:14;1.10;;;0.93;;
37151;SDS011;23046;50.112;8.952;2023-08-30T21:59:24;1.17;;;0.90;;
37151;SDS011;23046;50.112;8.952;2023-08-30T21:59:34;0.80;;;0.80;;
37151;SDS011;23046;50.112;8.952;2023-08-30T21:59:44;0.83;;;0.83;;
37151;SDS011;23046;50.112;8.952;2023-08-30T21:59:55;1.00;;;1.00;;
37151;SDS011;23046;50.112;8.952;2023-08-30T22:00:05;1.07;;;1.03;;
37151;SDS011;23046;50.112;8.952;2023-08-30T22:00:24;1.70;;;1.25;;
37151;SDS011;23046;50.112;8.952;2023-08-30T22:00:35;1.73;;;1.23;;
37151;SDS011;23046;50.112;8.952;2023-08-30T22:00:46;2.10;;;1.20;;
37151;SDS011;23046;50.112;8.952;2023-08-30T22:00:56;2.65;;;1.30;;
37151;SDS011;23046;50.112;8.952;2023-08-30T22:01:08;2.45;;;1.20;;
37151;SDS011;23046;50.112;8.952;2023-08-30T22:01:18;1.80;;;1.17;;
37151;SDS011;23046;50.112;8.952;2023-08-30T22:01:28;2.47;;;1.10;;
37151;SDS011;23046;50.112;8.952;2023-08-30T22:01:39;2.67;;;1.20;;
37151;SDS011;23046;50.112;8.952;2023-08-30T22:01:49;2.37;;;1.17;;
37151;SDS011;23046;50.112;8.952;2023-08-30T22:02:00;1.15;;;1.08;;
37151;SDS011;23046;50.112;8.952;2023-08-30T22:02:11;1.30;;;1.20;;
37151;SDS011;23046;50.112;8.952;2023-08-30T22:02:21;2.00;;;1.30;;
37151;SDS011;23046;50.112;8.952;2023-08-30T22:02:32;1.98;;;1.27;;
37151;SDS011;23046;50.112;8.952;2023-08-30T22:02:42;1.42;;;1.05;;
37151;SDS011;23046;50.112;8.952;2023-08-30T22:02:52;1.20;;;1.10;;
37151;SDS011;23046;50.112;8.952;2023-08-30T22:03:03;1.23;;;1.13;;
37151;SDS011;23046;50.112;8.952;2023-08-30T22:03:14;1.52;;;1.15;;
37151;SDS011;23046;50.112;8.952;2023-08-30T22:03:24;1.90;;;1.10;;
37151;SDS011;23046;50.112;8.952;2023-08-30T22:03:35;1.90;;;1.00;;
37151;SDS011;23046;50.112;8.952;2023-08-30T22:03:45;1.50;;;1.07;;
37151;SDS011;23046;50.112;8.952;2023-08-30T22:03:55;1.10;;;0.90;;
37151;SDS011;23046;50.112;8.952;2023-08-30T22:04:05;1.90;;;1.00;;
37151;SDS011;23046;50.112;8.952;2023-08-30T22:04:17;1.90;;;1.08;;
37151;SDS011;23046;50.112;8.952;2023-08-30T22:04:28;4.10;;;1.20;;
37151;SDS011;23046;50.112;8.952;2023-08-30T22:04:39;3.20;;;1.10;;
37151;SDS011;23046;50.112;8.952;2023-08-30T22:04:51;2.83;;;1.10;;
37151;SDS011;23046;50.112;8.952;2023-08-30T22:05:04;1.27;;;1.17;;
37151;SDS011;23046;50.112;8.952;2023-08-30T22:05:15;1.50;;;1.30;;
37151;SDS011;23046;50.112;8.952;2023-08-30T22:05:26;1.38;;;1.27;;
37151;SDS011;23046;50.112;8.952;2023-08-30T22:05:36;1.10;;;1.10;;
37151;SDS011;23046;50.112;8.952;2023-08-30T22:05:46;1.03;;;1.03;;
37151;SDS011;23046;50.112;8.952;2023-08-30T22:06:02;1.00;;;1.00;;
37151;SDS011;23046;50.112;8.952;2023-08-30T22:06:16;0.90;;;0.90;;
37151;SDS011;23046;50.112;8.952;2023-08-30T22:06:26;0.80;;;0.80;;
37151;SDS011;23046;50.112;8.952;2023-08-30T22:06:36;0.93;;;0.90;;
37151;SDS011;23046;50.112;8.952;2023-08-30T22:06:46;1.00;;;0.90;;
37151;SDS011;23046;50.112;8.952;2023-08-30T22:06:57;1.30;;;1.10;;
37151;SDS011;23046;50.112;8.952;2023-08-30T22:07:07;1.17;;;1.00;;
37151;SDS011;23046;50.112;8.952;2023-08-30T22:07:17;0.87;;;0.87;;
37151;SDS011;23046;50.112;8.952;2023-08-30T22:07:28;0.88;;;0.88;;
37151;SDS011;23046;50.112;8.952;2023-08-30T22:07:38;1.00;;;1.00;;
37151;SDS011;23046;50.112;8.952;2023-08-30T22:07:52;1.20;;;1.10;;
37151;SDS011;23046;50.112;8.952;2023-08-30T22:08:03;1.30;;;1.08;;
37151;SDS011;23046;50.112;8.952;2023-08-30T22:08:14;1.40;;;1.00;;
37151;SDS011;23046;50.112;8.952;2023-08-30T22:08:24;1.27;;;1.13;;
37151;SDS011;23046;50.112;8.952;2023-08-30T22:08:34;1.10;;;1.10;;
37151;SDS011;23046;50.112;8.952;2023-08-30T22:08:45;1.38;;;1.00;;
37151;SDS011;23046;50.112;8.952;2023-08-30T22:08:55;1.60;;;0.90;;
37151;SDS011;23046;50.112;8.952;2023-08-30T22:09:05;2.00;;;0.90;;
37151;SDS011;23046;50.112;8.952;2023-08-30T22:09:18;1.50;;;1.00;;
37151;SDS011;23046;50.112;8.952;2023-08-30T22:09:29;1.05;;;1.00;;
37151;SDS011;23046;50.112;8.952;2023-08-30T22:09:39;1.00;;;1.00;;
37151;SDS011;23046;50.112;8.952;2023-08-30T22:09:50;0.93;;;0.93;;
37151;SDS011;23046;50.112;8.952;2023-08-30T22:10:00;1.07;;;0.97;;
37151;SDS011;23046;50.112;8.952;2023-08-30T22:10:10;1.37;;;1.00;;
37151;SDS011;23046;50.112;8.952;2023-08-30T22:10:22;1.30;;;1.02;;
37151;SDS011;23046;50.112;8.952;2023-08-30T22:10:33;1.15;;;1.00;;
37151;SDS011;23046;50.112;8.952;2023-08-30T22:10:43;1.50;;;1.00;;
37151;SDS011;23046;50.112;8.952;2023-08-30T22:10:54;1.60;;;1.00;;
37151;SDS011;23046;50.112;8.952;2023-08-30T22:11:07;1.53;;;1.10;;
37151;SDS011;23046;50.112;8.952;2023-08-30T22:11:19;1.30;;;1.10;;
37151;SDS011;23046;50.112;8.952;2023-08-30T22:11:29;1.23;;;0.93;;
37151;SDS011;23046;50.112;8.952;2023-08-30T22:11:40;1.20;;;1.00;;
37151;SDS011;23046;50.112;8.952;2023-08-30T22:11:51;1.00;;;0.93;;
37151;SDS011;23046;50.112;8.952;2023-08-30T22:12:02;1.10;;;1.02;;
37151;SDS011;23046;50.112;8.952;2023-08-30T22:12:13;1.17;;;1.13;;
37151;SDS011;23046;50.112;8.952;2023-08-30T22:12:23;1.10;;;1.10;;
37151;SDS011;23046;50.112;8.952;2023-08-30T22:12:33;1.00;;;1.00;;
37151;SDS011;23046;50.112;8.952;2023-08-30T22:12:43;0.90;;;0.90;;
37151;SDS011;23046;50.112;8.952;2023-08-30T22:12:54;1.33;;;0.90;;
37151;SDS011;23046;50.112;8.952;2023-08-30T22:13:04;1.90;;;1.05;;
37151;SDS011;23046;50.112;8.952;2023-08-30T22:13:14;1.77;;;1.20;;
37151;SDS011;23046;50.112;8.952;2023-08-30T22:13:25;1.40;;;1.30;;
37151;SDS011;23046;50.112;8.952;2023-08-30T22:13:38;1.20;;;1.10;;
37151;SDS011;23046;50.112;8.952;2023-08-30T22:13:48;1.38;;;1.10;;
37151;SDS011;23046;50.112;8.952;2023-08-30T22:13:58;1.63;;;1.10;;
37151;SDS011;23046;50.112;8.952;2023-08-30T22:14:08;1.83;;;1.10;;
37151;SDS011;23046;50.112;8.952;2023-08-30T22:14:20;1.52;;;1.10;;
37151;SDS011;23046;50.112;8.952;2023-08-30T22:14:30;1.27;;;1.07;;
37151;SDS011;23046;50.112;8.952;2023-08-30T22:14:42;1.20;;;1.10;;
37151;SDS011;23046;50.112;8.952;2023-08-30T22:14:53;1.02;;;1.02;;
37151;SDS011;23046;50.112;8.952;2023-08-30T22:15:03;1.00;;;1.00;;
37151;SDS011;23046;50.112;8.952;2023-08-30T22:15:16;1.02;;;0.98;;
37151;SDS011;23046;50.112;8.952;2023-08-30T22:15:26;1.17;;;1.02;;
37151;SDS011;23046;50.112;8.952;2023-08-30T22:15:36;1.57;;;1.10;;
37151;SDS011;23046;50.112;8.952;2023-08-30T22:15:47;1.43;;;1.13;;
37151;SDS011;23046;50.112;8.952;2023-08-30T22:15:57;1.30;;;1.20;;
37151;SDS011;23046;50.112;8.952;2023-08-30T22:16:07;1.30;;;1.20;;
37151;SDS011;23046;50.112;8.952;2023-08-30T22:16:17;1.83;;;1.20;;
37151;SDS011;23046;50.112;8.952;2023-08-30T22:16:28;2.07;;;1.10;;
37151;SDS011;23046;50.112;8.952;2023-08-30T22:16:38;2.08;;;1.10;;
37151;SDS011;23046;50.112;8.952;2023-08-30T22:16:49;1.20;;;1.07;;
37151;SDS011;23046;50.112;8.952;2023-08-30T22:17:00;1.27;;;1.10;;
37151;SDS011;23046;50.112;8.952;2023-08-30T22:17:11;1.40;;;1.10;;
37151;SDS011;23046;50.112;8.952;2023-08-30T22:17:21;1.37;;;1.10;;
37151;SDS011;23046;50.112;8.952;2023-08-30T22:17:32;1.07;;;0.90;;
37151;SDS011;23046;50.112;8.952;2023-08-30T22:17:43;1.23;;;0.90;;
37151;SDS011;23046;50.112;8.952;2023-08-30T22:17:54;1.80;;;1.08;;
37151;SDS011;23046;50.112;8.952;2023-08-30T22:18:04;1.98;;;1.30;;
37151;SDS011;23046;50.112;8.952;2023-08-30T22:18:14;1.80;;;1.27;;
37151;SDS011;23046;50.112;8.952;2023-08-30T22:18:25;1.40;;;1.10;;
37151;SDS011;23046;50.112;8.952;2023-08-30T22:18:36;1.10;;;0.98;;
37151;SDS011;23046;50.112;8.952;2023-08-30T22:18:46;0.93;;;0.90;;
37151;SDS011;23046;50.112;8.952;2023-08-30T22:18:57;1.30;;;0.90;;
37151;SDS011;23046;50.112;8.952;2023-08-30T22:19:08;1.55;;;1.00;;
37151;SDS011;23046;50.112;8.952;2023-08-30T22:19:18;1.27;;;1.03;;
37151;SDS011;23046;50.112;8.952;2023-08-30T22:19:28;1.15;;;1.05;;
37151;SDS011;23046;50.112;8.952;2023-08-30T22:19:38;1.00;;;1.00;;
37151;SDS011;23046;50.112;8.952;2023-08-30T22:19:49;1.07;;;1.00;;
37151;SDS011;23046;50.112;8.952;2023-08-30T22:20:00;1.23;;;1.00;;
37151;SDS011;23046;50.112;8.952;2023-08-30T22:20:11;1.27;;;1.10;;
37151;SDS011;23046;50.112;8.952;2023-08-30T22:20:21;1.20;;;1.10;;
37151;SDS011;23046;50.112;8.952;2023-08-30T22:20:31;1.08;;;1.00;;
37151;SDS011;23046;50.112;8.952;2023-08-30T22:20:42;1.30;;;1.00;;
37151;SDS011;23046;50.112;8.952;2023-08-30T22:20:52;1.60;;;1.00;;
37151;SDS011;23046;50.112;8.952;2023-08-30T22:21:03;1.83;;;1.30;;
37151;SDS011;23046;50.112;8.952;2023-08-30T22:21:13;1.40;;;1.30;;
37151;SDS011;23046;50.112;8.952;2023-08-30T22:21:26;1.23;;;1.13;;
37151;SDS011;23046;50.112;8.952;2023-08-30T22:21:36;1.00;;;1.00;;
37151;SDS011;23046;50.112;8.952;2023-08-30T22:21:46;1.13;;;0.90;;
37151;SDS011;23046;50.112;8.952;2023-08-30T22:21:57;1.20;;;0.90;;
37151;SDS011;23046;50.112;8.952;2023-08-30T22:22:07;1.13;;;1.00;;
37151;SDS011;23046;50.112;8.952;2023-08-30T22:22:20;1.10;;;1.00;;
37151;SDS011;23046;50.112;8.952;2023-08-30T22:22:30;1.40;;;1.00;;
37151;SDS011;23046;50.112;8.952;2023-08-30T22:22:40;1.40;;;1.00;;
37151;SDS011;23046;50.112;8.952;2023-08-30T22:22:52;1.20;;;1.00;;
37151;SDS011;23046;50.112;8.952;2023-08-30T22:23:02;1.10;;;1.00;;
37151;SDS011;23046;50.112;8.952;2023-08-30T22:23:13;1.13;;;1.03;;
37151;SDS011;23046;50.112;8.952;2023-08-30T22:23:25;1.20;;;1.10;;
37151;SDS011;23046;50.112;8.952;2023-08-30T22:23:35;1.07;;;1.00;;
37151;SDS011;23046;50.112;8.952;2023-08-30T22:23:45;1.10;;;1.00;;
37151;SDS011;23046;50.112;8.952;2023-08-30T22:23:58;1.77;;;0.95;;
37151;SDS011;23046;50.112;8.952;2023-08-30T22:24:09;1.80;;;1.00;;
37151;SDS011;23046;50.112;8.952;2023-08-30T22:24:19;1.42;;;1.02;;
37151;SDS011;23046;50.112;8.952;2023-08-30T22:24:30;1.10;;;1.00;;
37151;SDS011;23046;50.112;8.952;2023-08-30T22:24:40;0.97;;;0.97;;
37151;SDS011;23046;50.112;8.952;2023-08-30T22:24:50;0.80;;;0.80;;
37151;SDS011;23046;50.112;8.952;2023-08-30T22:25:01;0.90;;;0.90;;
37151;SDS011;23046;50.112;8.952;2023-08-30T22:25:12;0.90;;;0.90;;
37151;SDS011;23046;50.112;8.952;2023-08-30T22:25:23;0.90;;;0.90;;
37151;SDS011;23046;50.112;8.952;2023-08-30T22:25:33;1.00;;;0.90;;
37151;SDS011;23046;50.112;8.952;2023-08-30T22:25:43;0.83;;;0.80;;
37151;SDS011;23046;50.112;8.952;2023-08-30T22:25:54;1.05;;;0.90;;
37151;SDS011;23046;50.112;8.952;2023-08-30T22:26:04;1.30;;;0.90;;
37151;SDS011;23046;50.112;8.952;2023-08-30T22:26:14;2.70;;;0.97;;
37151;SDS011;23046;50.112;8.952;2023-08-30T22:26:24;2.57;;;1.00;;
37151;SDS011;23046;50.112;8.952;2023-08-30T22:26:35;2.10;;;1.00;;
37151;SDS011;23046;50.112;8.952;2023-08-30T22:26:45;1.00;;;1.00;;
37151;SDS011;23046;50.112;8.952;2023-08-30T22:26:56;0.97;;;0.97;;
37151;SDS011;23046;50.112;8.952;2023-08-30T22:27:06;1.00;;;0.90;;
37151;SDS011;23046;50.112;8.952;2023-08-30T22:27:16;1.00;;;0.90;;
37151;SDS011;23046;50.112;8.952;2023-08-30T22:27:27;1.13;;;0.88;;
37151;SDS011;23046;50.112;8.952;2023-08-30T22:27:37;0.90;;;0.80;;
37151;SDS011;23046;50.112;8.952;2023-08-30T22:27:47;0.80;;;0.80;;
37151;SDS011;23046;50.112;8.952;2023-08-30T22:27:58;0.88;;;0.88;;
37151;SDS011;23046;50.112;8.952;2023-08-30T22:28:11;1.00;;;1.00;;
37151;SDS011;23046;50.112;8.952;2023-08-30T22:28:21;1.10;;;1.00;;
37151;SDS011;23046;50.112;8.952;2023-08-30T22:28:33;1.35;;;1.02;;
37151;SDS011;23046;50.112;8.952;2023-08-30T22:28:43;1.20;;;0.97;;
37151;SDS011;23046;50.112;8.952;2023-08-30T22:28:55;1.00;;;0.90;;
37151;SDS011;23046;50.112;8.952;2023-08-30T22:29:05;0.90;;;0.90;;
37151;SDS011;23046;50.112;8.952;2023-08-30T22:29:15;0.87;;;0.87;;
37151;SDS011;23046;50.112;8.952;2023-08-30T22:29:26;1.00;;;0.90;;
37151;SDS011;23046;50.112;8.952;2023-08-30T22:29:36;1.20;;;1.10;;
37151;SDS011;23046;50.112;8.952;2023-08-30T22:29:46;1.20;;;1.10;;
37151;SDS011;23046;50.112;8.952;2023-08-30T22:29:56;1.20;;;1.10;;
37151;SDS011;23046;50.112;8.952;2023-08-30T22:30:07;1.20;;;1.00;;
37151;SDS011;23046;50.112;8.952;2023-08-30T22:30:18;1.10;;;1.00;;
37151;SDS011;23046;50.112;8.952;2023-08-30T22:30:28;0.97;;;0.90;;
37151;SDS011;23046;50.112;8.952;2023-08-30T22:30:39;0.90;;;0.90;;
37151;SDS011;23046;50.112;8.952;2023-08-30T22:30:50;1.10;;;1.00;;
37151;SDS011;23046;50.112;8.952;2023-08-30T22:31:00;1.20;;;1.10;;
37151;SDS011;23046;50.112;8.952;2023-08-30T22:31:10;1.20;;;1.10;;
37151;SDS011;23046;50.112;8.952;2023-08-30T22:31:21;1.13;;;1.07;;
37151;SDS011;23046;50.112;8.952;2023-08-30T22:31:32;1.60;;;0.90;;
37151;SDS011;23046;50.112;8.952;2023-08-30T22:31:42;2.27;;;0.80;;
37151;SDS011;23046;50.112;8.952;2023-08-30T22:31:52;2.50;;;0.80;;
37151;SDS011;23046;50.112;8.952;2023-08-30T22:32:04;1.55;;;0.82;;
37151;SDS011;23046;50.112;8.952;2023-08-30T22:32:14;0.90;;;0.90;;
37151;SDS011;23046;50.112;8.952;2023-08-30T22:32:24;0.90;;;0.90;;
37151;SDS011;23046;50.112;8.952;2023-08-30T22:32:35;1.10;;;1.00;;
37151;SDS011;23046;50.112;8.952;2023-08-30T22:32:45;1.00;;;0.90;;
37151;SDS011;23046;50.112;8.952;2023-08-30T22:32:55;0.97;;;0.90;;
37151;SDS011;23046;50.112;8.952;2023-08-30T22:33:06;0.83;;;0.83;;
37151;SDS011;23046;50.112;8.952;2023-08-30T22:33:17;1.05;;;1.00;;
37151;SDS011;23046;50.112;8.952;2023-08-30T22:33:27;1.60;;;1.10;;
37151;SDS011;23046;50.112;8.952;2023-08-30T22:33:41;3.08;;;1.10;;
37151;SDS011;23046;50.112;8.952;2023-08-30T22:33:51;2.45;;;1.00;;
37151;SDS011;23046;50.112;8.952;2023-08-30T22:34:01;1.30;;;0.90;;
37151;SDS011;23046;50.112;8.952;2023-08-30T22:34:11;0.90;;;0.90;;
37151;SDS011;23046;50.112;8.952;2023-08-30T22:34:21;0.90;;;0.90;;
37151;SDS011;23046;50.112;8.952;2023-08-30T22:34:32;0.90;;;0.90;;
37151;SDS011;23046;50.112;8.952;2023-08-30T22:34:42;0.82;;;0.82;;
37151;SDS011;23046;50.112;8.952;2023-08-30T22:34:52;1.10;;;0.90;;
37151;SDS011;23046;50.112;8.952;2023-08-30T22:35:03;1.20;;;1.00;;
37151;SDS011;23046;50.112;8.952;2023-08-30T22:35:13;1.30;;;0.93;;
37151;SDS011;23046;50.112;8.952;2023-08-30T22:35:25;0.93;;;0.90;;
37151;SDS011;23046;50.112;8.952;2023-08-30T22:35:35;0.98;;;0.90;;
37151;SDS011;23046;50.112;8.952;2023-08-30T22:35:45;1.10;;;1.00;;
37151;SDS011;23046;50.112;8.952;2023-08-30T22:35:55;1.20;;;1.10;;
37151;SDS011;23046;50.112;8.952;2023-08-30T22:36:06;1.20;;;1.10;;
37151;SDS011;23046;50.112;8.952;2023-08-30T22:36:16;1.00;;;0.90;;
37151;SDS011;23046;50.112;8.952;2023-08-30T22:36:26;1.10;;;0.90;;
37151;SDS011;23046;50.112;8.952;2023-08-30T22:36:37;1.43;;;1.00;;
37151;SDS011;23046;50.112;8.952;2023-08-30T22:36:47;1.60;;;1.10;;
37151;SDS011;23046;50.112;8.952;2023-08-30T22:36:57;1.52;;;1.00;;
37151;SDS011;23046;50.112;8.952;2023-08-30T22:37:07;1.13;;;0.90;;
37151;SDS011;23046;50.112;8.952;2023-08-30T22:37:17;1.10;;;0.90;;
37151;SDS011;23046;50.112;8.952;2023-08-30T22:37:29;0.90;;;0.90;;
37151;SDS011;23046;50.112;8.952;2023-08-30T22:37:39;1.20;;;1.00;;
37151;SDS011;23046;50.112;8.952;2023-08-30T22:37:49;1.42;;;1.00;;
37151;SDS011;23046;50.112;8.952;2023-08-30T22:37:59;1.40;;;0.97;;
37151;SDS011;23046;50.112;8.952;2023-08-30T22:38:10;1.60;;;1.07;;
37151;SDS011;23046;50.112;8.952;2023-08-30T22:38:20;1.60;;;1.10;;
37151;SDS011;23046;50.112;8.952;2023-08-30T22:38:31;1.70;;;1.10;;
37151;SDS011;23046;50.112;8.952;2023-08-30T22:38:41;1.80;;;1.00;;
37151;SDS011;23046;50.112;8.952;2023-08-30T22:38:51;1.87;;;0.90;;
37151;SDS011;23046;50.112;8.952;2023-08-30T22:39:02;1.90;;;1.10;;
37151;SDS011;23046;50.112;8.952;2023-08-30T22:39:13;1.20;;;1.10;;
37151;SDS011;23046;50.112;8.952;2023-08-30T22:39:23;1.00;;;1.00;;
37151;SDS011;23046;50.112;8.952;2023-08-30T22:39:33;1.00;;;1.00;;
37151;SDS011;23046;50.112;8.952;2023-08-30T22:39:43;1.10;;;1.00;;
37151;SDS011;23046;50.112;8.952;2023-08-30T22:39:54;3.07;;;1.17;;
37151;SDS011;23046;50.112;8.952;2023-08-30T22:40:04;3.20;;;1.17;;
37151;SDS011;23046;50.112;8.952;2023-08-30T22:40:16;3.00;;;1.20;;
37151;SDS011;23046;50.112;8.952;2023-08-30T22:40:26;1.05;;;0.95;;
37151;SDS011;23046;50.112;8.952;2023-08-30T22:40:36;0.90;;;0.90;;
37151;SDS011;23046;50.112;8.952;2023-08-30T22:40:47;1.00;;;0.88;;
37151;SDS011;23046;50.112;8.952;2023-08-30T22:40:59;1.03;;;0.90;;
37151;SDS011;23046;50.112;8.952;2023-08-30T22:41:09;1.15;;;1.05;;
37151;SDS011;23046;50.112;8.952;2023-08-30T22:41:20;1.70;;;1.00;;
37151;SDS011;23046;50.112;8.952;2023-08-30T22:41:30;1.63;;;1.02;;
37151;SDS011;23046;50.112;8.952;2023-08-30T22:41:43;1.58;;;1.00;;
37151;SDS011;23046;50.112;8.952;2023-08-30T22:41:53;1.27;;;1.00;;
37151;SDS011;23046;50.112;8.952;2023-08-30T22:42:03;1.20;;;0.90;;
37151;SDS011;23046;50.112;8.952;2023-08-30T22:42:15;2.10;;;1.02;;
37151;SDS011;23046;50.112;8.952;2023-08-30T22:42:26;1.70;;;1.08;;
37151;SDS011;23046;50.112;8.952;2023-08-30T22:42:37;1.83;;;1.10;;
37151;SDS011;23046;50.112;8.952;2023-08-30T22:42:47;0.98;;;0.93;;
37151;SDS011;23046;50.112;8.952;2023-08-30T22:42:57;1.13;;;1.03;;
37151;SDS011;23046;50.112;8.952;2023-08-30T22:43:08;1.20;;;1.10;;
37151;SDS011;23046;50.112;8.952;2023-08-30T22:43:19;1.23;;;1.13;;
37151;SDS011;23046;50.112;8.952;2023-08-30T22:43:30;1.13;;;1.02;;
37151;SDS011;23046;50.112;8.952;2023-08-30T22:43:41;1.07;;;1.00;;
37151;SDS011;23046;50.112;8.952;2023-08-30T22:43:51;1.10;;;1.00;;
37151;SDS011;23046;50.112;8.952;2023-08-30T22:44:02;1.13;;;1.02;;
37151;SDS011;23046;50.112;8.952;2023-08-30T22:44:12;1.15;;;1.05;;
37151;SDS011;23046;50.112;8.952;2023-08-30T22:44:23;1.10;;;1.00;;
37151;SDS011;23046;50.112;8.952;2023-08-30T22:44:33;1.10;;;1.00;;
37151;SDS011;23046;50.112;8.952;2023-08-30T22:44:43;1.00;;;0.90;;
37151;SDS011;23046;50.112;8.952;2023-08-30T22:44:54;1.10;;;1.00;;
37151;SDS011;23046;50.112;8.952;2023-08-30T22:45:04;1.55;;;0.98;;
37151;SDS011;23046;50.112;8.952;2023-08-30T22:45:15;1.55;;;1.00;;
37151;SDS011;23046;50.112;8.952;2023-08-30T22:45:25;1.33;;;0.90;;
37151;SDS011;23046;50.112;8.952;2023-08-30T22:45:38;1.67;;;1.00;;
37151;SDS011;23046;50.112;8.952;2023-08-30T22:45:48;1.57;;;0.97;;
37151;SDS011;23046;50.112;8.952;2023-08-30T22:45:59;2.00;;;0.98;;
37151;SDS011;23046;50.112;8.952;2023-08-30T22:46:10;1.20;;;0.90;;
37151;SDS011;23046;50.112;8.952;2023-08-30T22:46:22;1.13;;;1.00;;
37151;SDS011;23046;50.112;8.952;2023-08-30T22:46:32;1.07;;;0.97;;
37151;SDS011;23046;50.112;8.952;2023-08-30T22:46:46;1.05;;;1.05;;
37151;SDS011;23046;50.112;8.952;2023-08-30T22:46:57;1.00;;;1.00;;
37151;SDS011;23046;50.112;8.952;2023-08-30T22:47:07;1.30;;;1.10;;
37151;SDS011;23046;50.112;8.952;2023-08-30T22:47:17;1.20;;;1.00;;
37151;SDS011;23046;50.112;8.952;2023-08-30T22:47:27;1.10;;;0.90;;
37151;SDS011;23046;50.112;8.952;2023-08-30T22:47:37;0.80;;;0.80;;
37151;SDS011;23046;50.112;8.952;2023-08-30T22:47:48;0.82;;;0.80;;
37151;SDS011;23046;50.112;8.952;2023-08-30T22:47:58;1.60;;;1.00;;